createdAt,value
2019-04-11T00:00:50.567Z,78.60
2019-04-11T00:05:57.297Z,77.80
2019-04-11T00:11:04.421Z,77.70
2019-04-11T00:16:11.030Z,77.60
2019-04-11T00:21:17.723Z,77.20
2019-04-11T00:26:24.498Z,77.60
2019-04-11T00:31:31.159Z,77.70
2019-04-11T00:36:38.787Z,77.10
2019-04-11T00:41:46.028Z,77.10
2019-04-11T00:46:52.957Z,78.40
2019-04-11T00:52:00.352Z,77.70
2019-04-11T00:57:07.141Z,78.20
2019-04-11T01:02:14.129Z,79.60
2019-04-11T01:07:20.724Z,78.90
2019-04-11T01:12:27.372Z,80.70
2019-04-11T01:17:33.988Z,80.90
2019-04-11T01:22:40.666Z,80.50
2019-04-11T01:27:48.007Z,79.40
2019-04-11T01:32:54.866Z,80.30
2019-04-11T01:38:01.498Z,80.00
2019-04-11T01:43:08.392Z,80.70
2019-04-11T01:48:23.700Z,81.60
2019-04-11T01:53:31.013Z,80.50
2019-04-11T01:58:38.495Z,80.60
2019-04-11T02:04:04.135Z,80.60
2019-04-11T02:09:15.740Z,81.30
2019-04-11T02:14:23.004Z,83.70
2019-04-11T02:19:30.717Z,82.80
2019-04-11T02:25:01.898Z,83.00
2019-04-11T02:30:11.172Z,83.70
2019-04-11T02:35:20.436Z,84.50
2019-04-11T02:40:28.196Z,83.60
2019-04-11T02:45:45.118Z,83.40
2019-04-11T02:50:45.920Z,84.00
2019-04-11T02:55:54.197Z,86.50
2019-04-11T03:01:04.999Z,85.10
2019-04-11T03:06:11.134Z,85.70
2019-04-11T03:11:19.198Z,86.00
2019-04-11T03:16:39.349Z,85.40
2019-04-11T03:21:39.194Z,86.20
2019-04-11T03:26:45.692Z,85.20
2019-04-11T03:42:29.674Z,86.20
2019-04-11T03:47:31.881Z,86.60
2019-04-11T03:52:28.448Z,85.40
2019-04-11T03:57:37.243Z,85.90
2019-04-11T04:02:46.597Z,86.10
2019-04-11T04:07:55.001Z,86.10
2019-04-11T04:13:03.285Z,87.50
2019-04-11T04:18:29.761Z,86.50
2019-04-11T04:23:40.900Z,88.30
2019-04-11T04:28:48.196Z,86.90
2019-04-11T04:33:55.573Z,86.50
2019-04-11T04:39:04.200Z,87.40
2019-04-11T04:44:12.231Z,87.80
2019-04-11T04:49:19.105Z,88.90
2019-04-11T04:54:25.708Z,87.60
2019-04-11T04:59:33.902Z,88.00
2019-04-11T05:04:40.707Z,86.70
2019-04-11T05:09:48.255Z,87.30
2019-04-11T05:14:56.047Z,88.60
2019-04-11T05:20:03.084Z,88.00
2019-04-11T05:25:10.617Z,87.80
2019-04-11T05:30:18.675Z,88.10
2019-04-11T05:35:25.387Z,86.90
2019-04-11T05:40:32.490Z,86.40
2019-04-11T05:45:40.152Z,85.80
2019-04-11T05:50:50.662Z,86.90
2019-04-11T05:55:55.306Z,84.50
2019-04-11T06:01:06.536Z,84.10
2019-04-11T06:06:26.844Z,85.30
2019-04-11T06:11:54.474Z,84.60
2019-04-11T06:17:02.674Z,84.80
2019-04-11T06:22:10.831Z,84.50
2019-04-11T06:27:22.159Z,84.40
2019-04-11T06:33:02.881Z,81.90
2019-04-11T06:38:43.436Z,81.00
2019-04-11T06:44:14.705Z,80.80
2019-04-11T06:49:30.795Z,77.30
2019-04-11T06:54:56.533Z,76.00
2019-04-11T07:00:03.059Z,74.90
2019-04-11T07:05:11.663Z,72.10
2019-04-11T07:10:21.953Z,70.70
2019-04-11T07:15:32.119Z,73.90
2019-04-11T07:20:56.575Z,68.90
2019-04-11T07:26:23.487Z,67.80
2019-04-11T07:31:52.910Z,65.90
2019-04-11T07:37:17.487Z,66.30
2019-04-11T07:42:39.079Z,66.20
2019-04-11T07:48:02.824Z,62.60
2019-04-11T07:53:10.839Z,62.70
2019-04-11T07:58:22.334Z,62.10
2019-04-11T08:03:47.741Z,63.00
2019-04-11T08:09:29.509Z,61.00
2019-04-11T08:14:47.500Z,62.40
2019-04-11T08:20:13.111Z,61.10
2019-04-11T08:25:45.288Z,59.90
2019-04-11T08:31:10.974Z,60.70
2019-04-11T08:36:26.026Z,57.30
2019-04-11T08:41:51.622Z,58.50
2019-04-11T08:47:02.817Z,56.70
2019-04-11T08:52:27.914Z,57.50
2019-04-11T08:57:44.382Z,55.80
2019-04-11T09:03:00.133Z,53.90
2019-04-11T09:08:18.355Z,55.30
2019-04-11T09:13:43.859Z,48.90
2019-04-11T09:18:52.380Z,49.20
2019-04-11T09:23:59.821Z,51.70
2019-04-11T09:29:07.231Z,50.20
2019-04-11T09:34:33.913Z,47.80
2019-04-11T09:39:47.787Z,49.10
2019-04-11T09:45:31.848Z,48.50
2019-04-11T09:50:56.666Z,49.30
2019-04-11T09:56:21.259Z,50.80
2019-04-11T10:01:56.186Z,48.00
2019-04-11T10:07:18.164Z,48.70
2019-04-11T10:12:42.564Z,49.80
2019-04-11T10:18:08.414Z,48.90
2019-04-11T10:23:22.934Z,45.10
2019-04-11T10:28:47.561Z,46.40
2019-04-11T10:34:19.641Z,45.70
2019-04-11T10:39:54.533Z,45.70
2019-04-11T10:45:31.029Z,47.70
2019-04-11T10:50:56.219Z,48.20
2019-04-11T10:56:24.943Z,49.70
2019-04-11T11:02:02.582Z,49.20
2019-04-11T11:07:16.221Z,48.50
2019-04-11T11:12:41.968Z,47.20
2019-04-11T11:18:38.072Z,45.90
2019-04-11T11:23:24.707Z,46.40
2019-04-11T11:28:32.268Z,46.80
2019-04-11T11:33:39.006Z,47.00
2019-04-11T11:38:54.378Z,45.40
2019-04-11T11:44:00.830Z,46.30
2019-04-11T11:49:38.841Z,45.20
2019-04-11T11:54:31.390Z,45.50
2019-04-11T11:59:44.918Z,43.60
2019-04-11T12:05:14.666Z,46.60
2019-04-11T12:10:37.408Z,47.10
2019-04-11T12:16:05.875Z,48.80
2019-04-11T12:21:18.576Z,46.30
2019-04-11T12:26:28.776Z,48.30
2019-04-11T12:31:35.047Z,46.40
2019-04-11T12:36:45.530Z,45.80
2019-04-11T12:41:55.820Z,45.70
2019-04-11T12:47:21.295Z,46.00
2019-04-11T12:52:39.330Z,47.70
2019-04-11T12:58:03.593Z,47.60
2019-04-11T13:03:28.150Z,50.40
2019-04-11T13:09:11.721Z,51.30
2019-04-11T13:14:46.296Z,49.40
2019-04-11T13:20:29.934Z,49.00
2019-04-11T13:26:07.747Z,47.20
2019-04-11T13:31:32.500Z,47.60
2019-04-11T13:37:15.185Z,47.60
2019-04-11T13:42:29.795Z,47.70
2019-04-11T13:47:54.042Z,49.80
2019-04-11T13:53:35.366Z,48.20
2019-04-11T13:59:12.937Z,49.80
2019-04-11T14:04:23.689Z,49.80
2019-04-11T14:09:39.938Z,49.30
2019-04-11T14:15:06.949Z,46.80
2019-04-11T14:20:29.210Z,46.40
2019-04-11T14:25:43.226Z,46.00
2019-04-11T14:31:15.596Z,48.00
2019-04-11T14:36:40.222Z,50.50
2019-04-11T14:42:14.699Z,48.70
2019-04-11T14:47:40.214Z,49.10
2019-04-11T14:52:54.509Z,49.10
2019-04-11T14:58:23.561Z,48.40
2019-04-11T15:03:47.839Z,48.70
2019-04-11T15:09:16.996Z,51.70
2019-04-11T15:14:49.494Z,53.60
2019-04-11T15:20:03.360Z,53.50
2019-04-11T15:25:27.589Z,55.20
2019-04-11T15:30:35.447Z,54.50
2019-04-11T15:35:41.987Z,52.60
2019-04-11T15:40:52.657Z,53.40
2019-04-11T15:46:01.894Z,50.10
2019-04-11T15:51:39.596Z,52.20
2019-04-11T15:56:58.878Z,52.20
2019-04-11T16:02:23.046Z,51.90
2019-04-11T16:07:54.050Z,52.10
2019-04-11T16:13:07.762Z,52.40
2019-04-11T16:18:37.636Z,51.80
2019-04-11T16:23:56.943Z,54.90
2019-04-11T16:29:25.649Z,52.10
2019-04-11T16:34:48.589Z,53.50
2019-04-11T16:40:27.641Z,53.80
2019-04-11T16:46:04.546Z,54.50
2019-04-11T16:51:14.299Z,54.90
2019-04-11T16:56:21.112Z,55.20
2019-04-11T17:01:28.682Z,54.20
2019-04-11T17:06:41.774Z,54.60
2019-04-11T17:11:48.590Z,55.30
2019-04-11T17:16:56.290Z,54.50
2019-04-11T17:22:02.828Z,53.60
2019-04-11T17:27:09.351Z,54.10
2019-04-11T17:32:16.068Z,54.80
2019-04-11T17:37:22.585Z,54.60
2019-04-11T17:42:29.198Z,57.00
2019-04-11T17:47:35.940Z,56.10
2019-04-11T17:52:42.511Z,58.60
2019-04-11T17:57:49.151Z,57.80
2019-04-11T18:02:55.976Z,58.10
2019-04-11T18:08:02.475Z,57.90
2019-04-11T18:13:09.125Z,57.50
2019-04-11T18:18:15.749Z,57.70
2019-04-11T18:23:22.358Z,56.50
2019-04-11T18:28:29.034Z,57.60
2019-04-11T18:33:35.731Z,58.40
2019-04-11T18:38:42.482Z,57.10
2019-04-11T18:43:50.832Z,56.90
2019-04-11T18:48:57.605Z,55.30
2019-04-11T18:54:04.290Z,55.50
2019-04-11T18:59:10.898Z,55.90
2019-04-11T19:04:17.549Z,56.00
2019-04-11T19:09:24.175Z,54.10
2019-04-11T19:14:30.752Z,56.20
2019-04-11T19:19:37.380Z,56.80
2019-04-11T19:24:43.947Z,57.30
2019-04-11T19:29:50.499Z,57.10
2019-04-11T19:34:57.108Z,58.50
2019-04-11T19:40:03.795Z,57.20
2019-04-11T19:45:10.790Z,57.20
2019-04-11T19:50:17.501Z,58.10
2019-04-11T19:55:41.861Z,57.30
2019-04-11T20:00:53.037Z,57.40
2019-04-11T20:05:56.617Z,58.00
2019-04-11T20:11:03.226Z,58.80
2019-04-11T20:16:12.303Z,59.70
2019-04-11T20:21:18.042Z,59.20
2019-04-11T20:26:24.461Z,60.50
2019-04-11T20:31:30.991Z,61.30
2019-04-11T20:36:40.882Z,60.70
2019-04-11T20:41:45.781Z,61.50
2019-04-11T20:46:52.273Z,61.20
2019-04-11T20:51:58.889Z,61.30
2019-04-11T20:57:05.404Z,60.20
2019-04-11T21:02:12.052Z,61.50
2019-04-11T21:07:18.787Z,61.50
2019-04-11T21:12:26.204Z,60.30
2019-04-11T21:17:32.787Z,61.10
2019-04-11T21:22:39.238Z,59.90
2019-04-11T21:27:45.829Z,59.90
2019-04-11T21:32:52.341Z,61.00
2019-04-11T21:38:00.294Z,61.40
2019-04-11T21:43:07.272Z,61.80
2019-04-11T21:48:13.909Z,62.20
2019-04-11T21:53:20.496Z,61.80
2019-04-11T21:58:27.152Z,62.80
2019-04-11T22:03:33.954Z,62.50
2019-04-11T22:08:40.549Z,63.70
2019-04-11T22:13:47.015Z,63.10
2019-04-11T22:18:53.562Z,64.20
2019-04-11T22:24:00.153Z,64.10
2019-04-11T22:29:06.775Z,60.80
2019-04-11T22:34:21.539Z,60.70
2019-04-11T22:39:28.923Z,59.60
2019-04-11T22:44:38.072Z,62.70
2019-04-11T22:49:44.702Z,63.20
2019-04-11T22:54:51.243Z,61.70
2019-04-11T22:59:57.610Z,63.00
2019-04-11T23:05:04.316Z,60.00
2019-04-11T23:10:11.008Z,59.20
2019-04-11T23:15:17.544Z,58.50
2019-04-11T23:20:24.065Z,58.00
2019-04-11T23:25:30.839Z,57.40
2019-04-11T23:30:37.377Z,58.40
2019-04-11T23:35:43.896Z,58.80
2019-04-11T23:40:51.200Z,58.50
2019-04-11T23:45:58.759Z,59.20
2019-04-11T23:51:05.398Z,58.40
2019-04-11T23:56:11.936Z,58.80
